createdAt,value
2022-12-28T00:00:38.735Z,99.90
2022-12-28T00:03:27.945Z,99.90
2022-12-28T00:06:16.608Z,99.90
2022-12-28T00:09:03.802Z,99.90
2022-12-28T00:11:50.881Z,99.90
2022-12-28T00:14:38.056Z,99.90
2022-12-28T00:17:25.209Z,99.90
2022-12-28T00:20:12.739Z,99.90
2022-12-28T00:22:59.820Z,99.90
2022-12-28T00:25:46.808Z,99.90
2022-12-28T00:28:33.901Z,99.90
2022-12-28T00:31:21.424Z,99.90
2022-12-28T00:34:08.508Z,99.90
2022-12-28T00:37:08.748Z,99.90
2022-12-28T00:39:59.106Z,99.90
2022-12-28T00:42:46.130Z,99.90
2022-12-28T00:45:33.321Z,99.90
2022-12-28T00:48:21.251Z,99.90
2022-12-28T00:51:16.742Z,99.90
2022-12-28T00:54:03.926Z,99.90
2022-12-28T00:56:50.956Z,99.90
2022-12-28T00:59:38.097Z,99.90
2022-12-28T01:02:25.136Z,99.90
2022-12-28T01:05:12.136Z,99.90
2022-12-28T01:07:59.177Z,99.90
2022-12-28T01:10:46.208Z,99.90
2022-12-28T01:13:33.264Z,99.90
2022-12-28T01:16:23.233Z,99.90
2022-12-28T01:19:14.820Z,99.90
2022-12-28T01:22:01.901Z,99.90
2022-12-28T01:24:48.995Z,99.90
2022-12-28T01:27:36.069Z,99.90
2022-12-28T01:30:23.115Z,99.90
2022-12-28T01:33:10.158Z,99.90
2022-12-28T01:35:57.203Z,99.90
2022-12-28T01:38:45.942Z,99.90
2022-12-28T01:41:36.568Z,99.90
2022-12-28T01:44:23.591Z,99.90
2022-12-28T01:47:17.250Z,99.90
2022-12-28T01:50:15.129Z,99.90
2022-12-28T01:53:04.800Z,99.90
2022-12-28T01:55:51.908Z,99.90
2022-12-28T01:58:39.892Z,99.90
2022-12-28T02:01:28.227Z,99.90
2022-12-28T02:04:16.024Z,99.90
2022-12-28T02:07:03.460Z,99.90
2022-12-28T02:10:43.046Z,99.90
2022-12-28T02:13:00.293Z,99.90
2022-12-28T02:15:47.943Z,99.90
2022-12-28T02:18:34.957Z,99.90
2022-12-28T02:21:50.090Z,99.90
2022-12-28T02:25:13.076Z,99.90
2022-12-28T02:28:08.511Z,99.90
2022-12-28T02:31:05.103Z,99.90
2022-12-28T02:34:06.364Z,99.90
2022-12-28T02:37:04.088Z,99.90
2022-12-28T02:40:01.513Z,99.90
2022-12-28T02:42:49.548Z,99.90
2022-12-28T02:46:01.169Z,99.90
2022-12-28T02:49:07.115Z,99.90
2022-12-28T02:52:12.437Z,99.90
2022-12-28T02:55:30.245Z,99.90
2022-12-28T02:58:42.052Z,99.90
2022-12-28T03:01:48.536Z,99.90
2022-12-28T03:04:55.110Z,99.90
2022-12-28T03:08:20.274Z,99.90
2022-12-28T03:11:11.691Z,99.90
2022-12-28T03:14:09.013Z,99.90
2022-12-28T03:17:18.256Z,99.90
2022-12-28T03:20:28.818Z,99.90
2022-12-28T03:23:41.725Z,99.90
2022-12-28T03:26:50.104Z,99.90
2022-12-28T03:30:07.073Z,99.90
2022-12-28T03:32:56.075Z,99.90
2022-12-28T03:36:07.282Z,99.90
2022-12-28T03:39:21.636Z,99.90
2022-12-28T03:43:04.358Z,99.90
2022-12-28T03:46:21.387Z,99.90
2022-12-28T03:49:11.574Z,99.90
2022-12-28T03:52:01.606Z,99.90
2022-12-28T03:54:49.441Z,99.90
2022-12-28T03:57:37.555Z,99.90
2022-12-28T04:00:29.747Z,99.90
2022-12-28T04:03:16.947Z,99.90
2022-12-28T04:06:05.087Z,99.90
2022-12-28T04:08:52.887Z,99.90
2022-12-28T04:11:40.830Z,99.90
2022-12-28T04:14:31.006Z,99.90
2022-12-28T04:17:18.203Z,99.90
2022-12-28T04:20:06.041Z,99.90
2022-12-28T04:22:54.014Z,99.90
2022-12-28T04:25:41.709Z,99.90
2022-12-28T04:28:31.132Z,99.90
2022-12-28T04:31:38.272Z,99.90
2022-12-28T04:34:29.545Z,99.90
2022-12-28T04:37:23.528Z,99.90
2022-12-28T04:40:10.948Z,99.90
2022-12-28T04:42:57.946Z,99.90
2022-12-28T04:45:54.632Z,99.90
2022-12-28T04:48:42.061Z,99.90
2022-12-28T04:51:29.993Z,99.90
2022-12-28T04:54:17.164Z,99.90
2022-12-28T04:57:04.268Z,99.90
2022-12-28T04:59:51.323Z,99.90
2022-12-28T05:02:38.341Z,99.90
2022-12-28T05:05:25.646Z,99.90
2022-12-28T05:08:12.670Z,99.90
2022-12-28T05:11:01.657Z,99.90
2022-12-28T05:13:49.280Z,99.90
2022-12-28T05:16:36.419Z,99.90
2022-12-28T05:19:23.662Z,99.90
2022-12-28T05:22:11.995Z,99.90
2022-12-28T05:24:58.980Z,99.90
2022-12-28T05:27:45.964Z,99.90
2022-12-28T05:30:32.948Z,99.90
2022-12-28T05:33:19.994Z,99.90
2022-12-28T05:36:11.953Z,99.90
2022-12-28T05:38:59.145Z,99.90
2022-12-28T05:41:46.179Z,99.90
2022-12-28T05:44:33.436Z,99.90
2022-12-28T05:47:20.425Z,99.90
2022-12-28T05:50:07.923Z,99.90
2022-12-28T05:52:54.932Z,99.90
2022-12-28T05:55:42.351Z,99.90
2022-12-28T05:58:29.913Z,99.90
2022-12-28T06:01:20.276Z,99.90
2022-12-28T06:04:13.323Z,99.90
2022-12-28T06:07:00.377Z,99.90
2022-12-28T06:09:47.443Z,99.90
2022-12-28T06:12:34.623Z,99.90
2022-12-28T06:15:21.652Z,99.90
2022-12-28T06:18:08.682Z,99.90
2022-12-28T06:21:05.230Z,99.90
2022-12-28T06:23:53.879Z,99.90
2022-12-28T06:26:41.745Z,99.90
2022-12-28T06:29:28.748Z,99.90
2022-12-28T06:32:15.779Z,99.90
2022-12-28T06:35:02.882Z,99.90
2022-12-28T06:37:50.120Z,99.90
2022-12-28T06:41:11.170Z,99.90
2022-12-28T06:43:45.502Z,99.90
2022-12-28T06:46:32.619Z,99.90
2022-12-28T06:49:19.811Z,99.90
2022-12-28T06:52:07.099Z,99.90
2022-12-28T06:54:54.170Z,99.90
2022-12-28T06:57:41.175Z,99.90
2022-12-28T07:00:28.391Z,99.90
2022-12-28T07:03:15.896Z,99.90
2022-12-28T07:06:04.182Z,99.90
2022-12-28T07:08:51.936Z,99.90
2022-12-28T07:11:39.809Z,99.90
2022-12-28T07:14:26.842Z,99.90
2022-12-28T07:17:13.978Z,99.90
2022-12-28T07:20:01.133Z,99.90
2022-12-28T07:22:48.196Z,99.90
2022-12-28T07:25:36.223Z,99.90
2022-12-28T07:28:23.948Z,99.90
2022-12-28T07:31:19.570Z,99.90
2022-12-28T07:34:06.850Z,99.90
2022-12-28T07:36:53.825Z,99.90
2022-12-28T07:39:40.912Z,99.90
2022-12-28T07:42:31.981Z,99.90
2022-12-28T07:45:20.301Z,99.90
2022-12-28T07:48:07.336Z,99.90
2022-12-28T07:50:54.365Z,99.90
2022-12-28T07:53:43.288Z,99.90
2022-12-28T07:59:18.328Z,99.90
2022-12-28T08:02:05.635Z,99.90
2022-12-28T08:04:52.999Z,99.90
2022-12-28T08:07:40.312Z,99.90
2022-12-28T08:10:27.486Z,99.90
2022-12-28T08:13:15.073Z,99.90
2022-12-28T08:16:02.853Z,99.90
2022-12-28T08:18:50.499Z,99.90
2022-12-28T08:21:41.186Z,99.90
2022-12-28T08:24:28.295Z,99.90
2022-12-28T08:27:15.318Z,99.90
2022-12-28T08:30:04.243Z,99.90
2022-12-28T08:32:51.282Z,99.90
2022-12-28T08:35:38.312Z,99.90
2022-12-28T08:38:25.328Z,99.90
2022-12-28T08:41:15.458Z,99.90
2022-12-28T08:44:03.005Z,99.90
2022-12-28T08:46:50.142Z,99.90
2022-12-28T08:49:37.348Z,99.90
2022-12-28T08:52:24.814Z,99.90
2022-12-28T08:55:11.909Z,99.90
2022-12-28T08:57:58.915Z,99.90
2022-12-28T09:00:45.974Z,99.90
2022-12-28T09:03:36.017Z,99.90
2022-12-28T09:06:33.632Z,99.90
2022-12-28T09:09:21.852Z,99.90
2022-12-28T09:12:09.045Z,99.90
2022-12-28T09:14:56.134Z,99.90
2022-12-28T09:17:43.109Z,99.90
2022-12-28T09:20:30.447Z,99.90
2022-12-28T09:23:17.516Z,99.90
2022-12-28T09:26:28.985Z,99.90
2022-12-28T09:29:16.215Z,99.90
2022-12-28T09:32:03.253Z,99.90
2022-12-28T09:34:50.332Z,99.90
2022-12-28T09:37:37.339Z,99.90
2022-12-28T09:40:24.591Z,99.90
2022-12-28T09:43:12.961Z,99.90
2022-12-28T09:45:59.995Z,99.90
2022-12-28T09:48:53.977Z,99.90
2022-12-28T09:51:49.144Z,99.90
2022-12-28T09:54:36.310Z,99.90
2022-12-28T09:57:24.838Z,99.90
2022-12-28T10:00:24.018Z,99.90
2022-12-28T10:03:40.295Z,99.90
2022-12-28T10:06:32.292Z,99.90
2022-12-28T10:09:32.165Z,99.90
2022-12-28T10:12:26.541Z,99.90
2022-12-28T10:15:15.589Z,99.90
2022-12-28T10:18:04.513Z,99.90
2022-12-28T10:20:52.234Z,99.90
2022-12-28T10:24:04.777Z,99.90
2022-12-28T10:26:48.800Z,99.90
2022-12-28T10:29:35.863Z,99.90
2022-12-28T10:32:22.895Z,99.90
2022-12-28T10:35:22.898Z,99.90
2022-12-28T10:38:33.811Z,99.90
2022-12-28T10:41:21.615Z,99.90
2022-12-28T10:44:40.554Z,99.90
2022-12-28T10:47:35.882Z,99.90
2022-12-28T10:51:21.673Z,99.90
2022-12-28T10:54:31.002Z,99.90
2022-12-28T10:57:21.106Z,99.90
2022-12-28T11:00:22.816Z,99.90
2022-12-28T11:03:24.120Z,99.90
2022-12-28T11:06:12.900Z,99.90
2022-12-28T11:09:03.307Z,99.90
2022-12-28T11:11:53.465Z,99.90
2022-12-28T11:14:40.624Z,99.90
2022-12-28T11:17:29.297Z,99.90
2022-12-28T11:20:24.613Z,99.90
2022-12-28T11:23:21.923Z,99.90
2022-12-28T11:26:13.688Z,99.90
2022-12-28T11:29:01.956Z,99.90
2022-12-28T11:32:15.310Z,99.90
2022-12-28T11:35:03.299Z,99.90
2022-12-28T11:38:01.918Z,99.90
2022-12-28T11:40:52.502Z,99.90
2022-12-28T11:43:49.333Z,99.90
2022-12-28T11:46:38.318Z,99.90
2022-12-28T11:49:28.759Z,99.90
2022-12-28T11:52:24.036Z,99.90
2022-12-28T11:55:23.578Z,99.90
2022-12-28T11:58:42.802Z,99.90
2022-12-28T12:01:30.010Z,99.90
2022-12-28T12:04:31.172Z,99.90
2022-12-28T12:07:29.014Z,99.90
2022-12-28T12:10:29.619Z,99.90
2022-12-28T12:13:25.567Z,99.90
2022-12-28T12:16:28.937Z,99.90
2022-12-28T12:19:32.805Z,99.90
2022-12-28T12:22:28.239Z,99.90
2022-12-28T12:25:40.672Z,99.90
2022-12-28T12:28:31.829Z,99.90
2022-12-28T12:31:37.246Z,99.90
2022-12-28T12:34:48.891Z,99.90
2022-12-28T12:37:59.295Z,99.90
2022-12-28T12:41:02.451Z,99.90
2022-12-28T12:44:04.592Z,99.90
2022-12-28T12:47:06.470Z,99.90
2022-12-28T12:50:02.545Z,99.90
2022-12-28T12:52:54.698Z,99.90
2022-12-28T12:55:57.427Z,99.90
2022-12-28T12:59:22.196Z,99.90
2022-12-28T13:02:12.453Z,99.90
2022-12-28T13:05:04.386Z,99.90
2022-12-28T13:07:53.087Z,99.90
2022-12-28T13:10:44.484Z,99.90
2022-12-28T13:13:35.401Z,99.90
2022-12-28T13:16:26.057Z,99.90
2022-12-28T13:19:19.339Z,99.90
2022-12-28T13:22:06.353Z,99.90
2022-12-28T13:24:53.571Z,99.90
2022-12-28T13:27:40.658Z,99.90
2022-12-28T13:30:29.021Z,99.90
2022-12-28T13:33:21.436Z,99.90
2022-12-28T13:36:17.826Z,99.90
2022-12-28T13:39:13.343Z,99.90
2022-12-28T13:42:04.862Z,99.90
2022-12-28T13:44:51.866Z,99.90
2022-12-28T13:47:47.797Z,99.90
2022-12-28T13:50:39.330Z,99.90
2022-12-28T13:53:29.637Z,99.90
2022-12-28T13:56:19.223Z,99.90
2022-12-28T13:59:17.294Z,99.90
2022-12-28T14:02:05.059Z,99.90
2022-12-28T14:04:54.635Z,99.90
2022-12-28T14:07:42.019Z,99.90
2022-12-28T14:10:29.246Z,99.90
2022-12-28T14:13:18.493Z,99.90
2022-12-28T14:16:06.398Z,99.90
2022-12-28T14:18:53.973Z,99.90
2022-12-28T14:21:44.182Z,99.90
2022-12-28T14:24:31.282Z,99.90
2022-12-28T14:27:18.416Z,99.90
2022-12-28T14:30:21.897Z,99.90
2022-12-28T14:33:24.318Z,99.90
2022-12-28T14:36:24.163Z,99.90
2022-12-28T14:39:34.668Z,99.90
2022-12-28T14:42:25.038Z,99.90
2022-12-28T14:46:06.789Z,99.90
2022-12-28T14:48:50.186Z,99.90
2022-12-28T14:51:42.492Z,99.90
2022-12-28T14:54:32.608Z,99.90
2022-12-28T14:57:39.869Z,99.90
2022-12-28T15:00:30.355Z,99.90
2022-12-28T15:03:20.640Z,99.90
2022-12-28T15:06:07.682Z,99.90
2022-12-28T15:08:56.237Z,99.90
2022-12-28T15:11:44.962Z,99.90
2022-12-28T15:14:31.987Z,99.90
2022-12-28T15:17:19.154Z,99.90
2022-12-28T15:20:07.430Z,99.90
2022-12-28T15:22:54.455Z,99.90
2022-12-28T15:25:41.561Z,99.90
2022-12-28T15:28:28.611Z,99.90
2022-12-28T15:31:18.157Z,99.90
2022-12-28T15:34:05.213Z,99.90
2022-12-28T15:36:55.262Z,99.90
2022-12-28T15:39:42.410Z,99.90
2022-12-28T15:42:30.715Z,99.90
2022-12-28T15:45:20.735Z,99.90
2022-12-28T15:48:07.851Z,99.90
2022-12-28T15:50:54.976Z,99.90
2022-12-28T15:53:42.067Z,99.90
2022-12-28T15:56:31.730Z,99.90
2022-12-28T15:59:18.871Z,99.90
2022-12-28T16:02:06.980Z,99.90
2022-12-28T16:04:54.503Z,99.90
2022-12-28T16:07:41.960Z,99.90
2022-12-28T16:10:29.074Z,99.90
2022-12-28T16:13:16.902Z,99.90
2022-12-28T16:16:06.157Z,99.90
2022-12-28T16:18:57.686Z,99.90
2022-12-28T16:21:45.284Z,99.90
2022-12-28T16:24:32.373Z,99.90
2022-12-28T16:27:19.514Z,99.90
2022-12-28T16:30:07.328Z,99.90
2022-12-28T16:32:55.582Z,99.90
2022-12-28T16:35:46.051Z,99.90
2022-12-28T16:38:33.060Z,99.90
2022-12-28T16:41:21.346Z,99.90
2022-12-28T16:44:15.011Z,99.90
2022-12-28T16:47:02.330Z,99.90
2022-12-28T16:49:49.942Z,99.90
2022-12-28T16:52:37.009Z,99.90
2022-12-28T16:55:24.332Z,99.90
2022-12-28T16:58:11.443Z,99.90
2022-12-28T17:01:04.517Z,99.90
2022-12-28T17:03:51.809Z,99.90
2022-12-28T17:06:43.043Z,99.90
2022-12-28T17:09:30.068Z,99.90
2022-12-28T17:12:17.219Z,99.90
2022-12-28T17:15:05.520Z,99.90
2022-12-28T17:17:52.576Z,99.90
2022-12-28T17:20:40.177Z,99.90
2022-12-28T17:23:27.259Z,99.90
2022-12-28T17:26:14.305Z,99.90
2022-12-28T17:29:01.329Z,99.90
2022-12-28T17:31:48.418Z,99.90
2022-12-28T17:34:36.216Z,99.90
2022-12-28T17:37:23.257Z,99.90
2022-12-28T17:40:11.298Z,99.90
2022-12-28T17:42:58.321Z,99.90
2022-12-28T17:45:45.383Z,99.90
2022-12-28T17:48:30.686Z,99.90
2022-12-28T17:50:58.968Z,99.90
2022-12-28T17:53:26.101Z,99.90
2022-12-28T17:55:52.920Z,99.90
2022-12-28T17:58:19.684Z,99.90
2022-12-28T18:00:47.247Z,99.90
2022-12-28T18:03:14.098Z,99.90
2022-12-28T18:05:40.875Z,99.90
2022-12-28T18:08:07.762Z,99.90
2022-12-28T18:10:34.451Z,99.90
2022-12-28T18:13:01.142Z,99.90
2022-12-28T18:15:33.077Z,99.90
2022-12-28T18:18:03.179Z,99.90
2022-12-28T18:20:30.025Z,99.90
2022-12-28T18:22:56.895Z,99.90
2022-12-28T18:25:23.611Z,99.90
2022-12-28T18:27:50.736Z,99.90
2022-12-28T18:30:17.686Z,99.90
2022-12-28T18:32:44.553Z,99.90
2022-12-28T18:42:58.171Z,50.90
2022-12-28T18:45:24.920Z,55.30
2022-12-28T18:47:51.718Z,60.20
2022-12-28T18:50:18.725Z,63.50
2022-12-28T18:52:45.417Z,65.70
2022-12-28T18:55:12.178Z,67.10
2022-12-28T18:57:39.133Z,68.50
2022-12-28T19:00:08.140Z,69.40
2022-12-28T19:02:35.387Z,70.20
2022-12-28T19:05:02.290Z,70.50
2022-12-28T19:07:29.201Z,70.80
2022-12-28T19:10:13.021Z,71.10
2022-12-28T19:12:41.812Z,71.40
2022-12-28T19:15:09.650Z,71.50
2022-12-28T19:17:36.572Z,71.60
2022-12-28T19:20:04.495Z,71.80
2022-12-28T19:22:31.351Z,72.50
2022-12-28T19:24:58.125Z,73.10
2022-12-28T19:27:25.068Z,73.20
2022-12-28T19:29:51.944Z,73.80
2022-12-28T19:32:18.712Z,73.70
2022-12-28T19:34:45.697Z,73.90
2022-12-28T19:37:12.453Z,74.10
2022-12-28T19:39:39.423Z,74.20
2022-12-28T19:42:06.165Z,74.60
2022-12-28T19:44:33.576Z,74.80
2022-12-28T19:47:00.459Z,75.00
2022-12-28T19:49:27.313Z,75.00
2022-12-28T19:51:55.511Z,75.80
2022-12-28T19:54:22.644Z,76.20
2022-12-28T19:56:49.844Z,76.30
2022-12-28T19:59:16.550Z,76.90
2022-12-28T20:01:43.328Z,77.40
2022-12-28T20:04:13.827Z,77.70
2022-12-28T20:06:43.258Z,77.80
2022-12-28T20:09:10.743Z,78.40
2022-12-28T20:11:38.144Z,79.20
2022-12-28T20:14:05.212Z,79.70
2022-12-28T20:16:33.862Z,79.80
2022-12-28T20:19:06.748Z,80.30
2022-12-28T20:21:35.308Z,80.50
2022-12-28T20:24:02.268Z,81.10
2022-12-28T20:26:29.689Z,80.90
2022-12-28T20:28:57.972Z,81.30
2022-12-28T20:31:25.822Z,81.50
2022-12-28T20:33:53.100Z,81.70
2022-12-28T20:36:22.540Z,82.30
2022-12-28T20:38:49.983Z,83.10
2022-12-28T20:41:38.475Z,83.10
2022-12-28T20:44:11.465Z,82.60
2022-12-28T20:46:38.339Z,82.50
2022-12-28T20:49:06.042Z,82.50
2022-12-28T20:51:33.932Z,83.00
2022-12-28T20:54:01.155Z,82.70
2022-12-28T20:56:27.912Z,83.20
2022-12-28T20:58:54.743Z,83.00
2022-12-28T21:01:21.747Z,82.80
2022-12-28T21:03:48.938Z,83.70
2022-12-28T21:06:15.745Z,83.90
2022-12-28T21:08:42.619Z,83.70
2022-12-28T21:11:09.430Z,83.50
2022-12-28T21:13:42.293Z,83.70
2022-12-28T21:16:11.264Z,84.10
2022-12-28T21:18:38.132Z,83.50
2022-12-28T21:21:05.293Z,84.20
2022-12-28T21:23:32.694Z,84.20
2022-12-28T21:26:07.739Z,84.30
2022-12-28T21:28:34.853Z,84.40
2022-12-28T21:31:04.729Z,84.00
2022-12-28T21:33:32.292Z,84.40
2022-12-28T21:36:07.435Z,84.70
2022-12-28T21:38:37.493Z,84.60
2022-12-28T21:41:09.836Z,85.00
2022-12-28T21:43:36.616Z,84.70
2022-12-28T21:46:15.872Z,85.20
2022-12-28T21:48:42.619Z,85.00
2022-12-28T21:51:31.794Z,85.70
2022-12-28T21:54:07.798Z,85.50
2022-12-28T21:56:35.313Z,85.00
2022-12-28T21:59:02.785Z,85.10
2022-12-28T22:01:48.297Z,85.00
2022-12-28T22:04:36.220Z,85.50
2022-12-28T22:07:04.022Z,85.20
2022-12-28T22:09:49.903Z,85.30
2022-12-28T22:12:34.698Z,85.40
2022-12-28T22:15:32.361Z,85.80
2022-12-28T22:18:06.608Z,85.70
2022-12-28T22:20:37.753Z,86.30
2022-12-28T22:23:05.001Z,86.30
2022-12-28T22:25:32.088Z,86.70
2022-12-28T22:28:00.134Z,86.70
2022-12-28T22:30:27.686Z,86.70
2022-12-28T22:32:54.779Z,86.70
2022-12-28T22:35:22.404Z,86.40
2022-12-28T22:37:49.781Z,86.80
2022-12-28T22:40:17.229Z,86.50
2022-12-28T22:42:46.668Z,86.70
2022-12-28T22:45:16.115Z,86.40
2022-12-28T22:47:43.931Z,85.70
2022-12-28T22:50:13.295Z,85.70
2022-12-28T22:52:40.577Z,86.10
2022-12-28T22:55:08.078Z,86.00
2022-12-28T22:57:35.281Z,86.30
2022-12-28T23:00:02.185Z,86.10
2022-12-28T23:02:30.468Z,85.90
2022-12-28T23:04:57.595Z,86.20
2022-12-28T23:07:24.480Z,86.30
2022-12-28T23:09:51.257Z,86.20
2022-12-28T23:12:18.246Z,86.70
2022-12-28T23:15:03.948Z,86.10
2022-12-28T23:17:30.796Z,86.30
2022-12-28T23:20:16.123Z,86.00
2022-12-28T23:23:01.504Z,85.90
2022-12-28T23:25:46.704Z,86.40
2022-12-28T23:28:15.304Z,86.40
2022-12-28T23:30:45.879Z,86.10
2022-12-28T23:33:12.751Z,86.30
2022-12-28T23:35:39.583Z,86.30
2022-12-28T23:38:06.351Z,86.20
2022-12-28T23:40:33.177Z,86.20
2022-12-28T23:43:00.018Z,85.90
2022-12-28T23:45:26.809Z,85.50
2022-12-28T23:47:53.622Z,85.10
2022-12-28T23:50:20.505Z,85.00
2022-12-28T23:52:47.283Z,84.70
2022-12-28T23:55:14.063Z,84.30
2022-12-28T23:57:41.543Z,84.10
